Georgetown, DE

7:27 AM EDT on September 30, 2014 (GMT -0400)
Sussex County | Change Station
CLOSE
Current Station
Airport
Location: Georgetown,
Elevation: 52 ft
Nearby Weather Stations

Elev 52 ft 38.69 °N, 75.36 °W | Updated 33 minutes ago

Partly Cloudy
Partly Cloudy
61 °F
Feels Like 61 °F
N
0
Wind Variable Wind from North

Today
High -- | Low -- °F
--% Chance of Precip.
Yesterday
High -- | Low -- °F
Precip. -- in
6:56 AM 6:45 PM
Waxing Crescent, 36% visible
Pressure 29.94 in
Visibility 5.0 miles
Clouds Few 3600 ft
Dew Point 59 °F
Humidity 93%
Rainfall 0.03 in
Snow Depth Not available.
UV 0 out of 12
Pollen 3.30 out of 12
Air Quality Not available.
Flu Activity Not available.
METAR KGED 301054Z AUTO 00000KT 5SM BR FEW036 16/15 A2994 RMK AO2 SLP138 T01610150

More Conditions Fewer Conditions

Pressure 29.94 in
Visibility 5.0 miles
Clouds Few 3600 ft
Dew Point 59 °F
Humidity 93%
Rainfall 0.03 in
Snow Depth Not available.
UV 0 out of 12
Pollen 3.30 out of 12
Air Quality Not available.
Flu Activity Not available.
METAR KGED 301054Z AUTO 00000KT 5SM BR FEW036 16/15 A2994 RMK AO2 SLP138 T01610150

More Conditions Fewer Conditions

10-Day Weather Forecast

Almanac

Astronomy

Sep. 30, 2014 Rise Set
Actual Time 6:56 AM EDT 6:45 PM EDT
Civil Twilight 6:29 AM EDT 7:12 PM EDT
Nautical Twilight 5:59 AM EDT 7:43 PM EDT
Astronomical Twilight 5:28 AM EDT 8:14 PM EDT
Moon 12:59 PM EDT 11:16 PM EDT
Length of Visible Light 12h 42m
Length of Day
11h 49m
Tomorrow will be 2m 29s shorter.
Waxing Crescent, 36% of the Moon is Illuminated
Today
Waxing Crescent
Oct 1
First Quarter
Oct 8
Full
Oct 15
Last Quarter
Oct 23
New

Today's Extremes

State Highs State Lows

Community

WunderPhotos

Upload Photos

1,757,617 photos uploaded!

WunderBlogs® & News

Nearby

Snow Depth

Station Depth Elevation
No new snow has been reported.

Earthquake Activity

City Distance Mag. Time & Date
No recent earthquake activity has been reported nearby.
Minimum magnitude displayed is 2.5.

Coastal Water Temperatures

Place Temperature
Ocean City Inlet, MD 71.1 °F
Lewes, DE 70.0 °F
Cape May, NJ 73.0 °F

Nearby Weather Stations